sensor_id;sensor_type;location;lat;lon;timestamp;P1;durP1;ratioP1;P2;durP2;ratioP2
81229;SDS011;70701;44.452;18.652;2023-09-07T00:00:12;14.68;;;12.88;;
81229;SDS011;70701;44.452;18.652;2023-09-07T00:02:39;15.00;;;13.45;;
81229;SDS011;70701;44.452;18.652;2023-09-07T00:05:05;14.07;;;12.35;;
81229;SDS011;70701;44.452;18.652;2023-09-07T00:07:32;17.75;;;12.55;;
81229;SDS011;70701;44.452;18.652;2023-09-07T00:09:57;12.73;;;11.43;;
81229;SDS011;70701;44.452;18.652;2023-09-07T00:12:23;18.40;;;11.40;;
81229;SDS011;70701;44.452;18.652;2023-09-07T00:14:48;16.58;;;11.93;;
81229;SDS011;70701;44.452;18.652;2023-09-07T00:17:14;14.35;;;11.85;;
81229;SDS011;70701;44.452;18.652;2023-09-07T00:19:40;15.25;;;11.70;;
81229;SDS011;70701;44.452;18.652;2023-09-07T00:22:05;13.40;;;11.65;;
81229;SDS011;70701;44.452;18.652;2023-09-07T00:24:31;13.27;;;11.77;;
81229;SDS011;70701;44.452;18.652;2023-09-07T00:26:57;16.10;;;11.80;;
81229;SDS011;70701;44.452;18.652;2023-09-07T00:29:23;13.52;;;11.35;;
81229;SDS011;70701;44.452;18.652;2023-09-07T00:31:48;15.40;;;11.98;;
81229;SDS011;70701;44.452;18.652;2023-09-07T00:34:14;15.18;;;11.30;;
81229;SDS011;70701;44.452;18.652;2023-09-07T00:36:40;12.63;;;11.10;;
81229;SDS011;70701;44.452;18.652;2023-09-07T00:39:05;15.10;;;11.18;;
81229;SDS011;70701;44.452;18.652;2023-09-07T00:41:31;14.10;;;11.82;;
81229;SDS011;70701;44.452;18.652;2023-09-07T00:43:56;20.60;;;11.60;;
81229;SDS011;70701;44.452;18.652;2023-09-07T00:46:22;17.08;;;11.52;;
81229;SDS011;70701;44.452;18.652;2023-09-07T00:48:48;17.25;;;11.90;;
81229;SDS011;70701;44.452;18.652;2023-09-07T00:51:15;18.63;;;11.25;;
81229;SDS011;70701;44.452;18.652;2023-09-07T00:53:40;16.85;;;11.85;;
81229;SDS011;70701;44.452;18.652;2023-09-07T00:56:07;16.15;;;11.30;;
81229;SDS011;70701;44.452;18.652;2023-09-07T00:58:33;14.02;;;12.52;;
81229;SDS011;70701;44.452;18.652;2023-09-07T01:00:59;16.67;;;12.05;;
81229;SDS011;70701;44.452;18.652;2023-09-07T01:03:25;19.73;;;11.05;;
81229;SDS011;70701;44.452;18.652;2023-09-07T01:08:42;13.52;;;11.77;;
81229;SDS011;70701;44.452;18.652;2023-09-07T01:11:15;13.82;;;11.85;;
81229;SDS011;70701;44.452;18.652;2023-09-07T01:13:42;16.17;;;11.48;;
81229;SDS011;70701;44.452;18.652;2023-09-07T01:16:08;14.52;;;11.95;;
81229;SDS011;70701;44.452;18.652;2023-09-07T01:18:36;12.40;;;11.13;;
81229;SDS011;70701;44.452;18.652;2023-09-07T01:21:07;17.33;;;12.07;;
81229;SDS011;70701;44.452;18.652;2023-09-07T01:23:37;16.73;;;13.25;;
81229;SDS011;70701;44.452;18.652;2023-09-07T01:26:09;17.20;;;12.73;;
81229;SDS011;70701;44.452;18.652;2023-09-07T01:28:35;16.00;;;12.73;;
81229;SDS011;70701;44.452;18.652;2023-09-07T01:31:02;15.65;;;12.63;;
81229;SDS011;70701;44.452;18.652;2023-09-07T01:33:29;13.93;;;12.07;;
81229;SDS011;70701;44.452;18.652;2023-09-07T01:35:54;15.93;;;13.05;;
81229;SDS011;70701;44.452;18.652;2023-09-07T01:38:20;16.38;;;12.32;;
81229;SDS011;70701;44.452;18.652;2023-09-07T01:40:46;14.30;;;11.48;;
81229;SDS011;70701;44.452;18.652;2023-09-07T01:43:12;13.20;;;11.80;;
81229;SDS011;70701;44.452;18.652;2023-09-07T01:45:37;16.23;;;12.45;;
81229;SDS011;70701;44.452;18.652;2023-09-07T01:48:05;15.43;;;12.15;;
81229;SDS011;70701;44.452;18.652;2023-09-07T01:50:33;17.25;;;12.48;;
81229;SDS011;70701;44.452;18.652;2023-09-07T01:52:59;14.85;;;12.57;;
81229;SDS011;70701;44.452;18.652;2023-09-07T01:55:25;14.32;;;12.82;;
81229;SDS011;70701;44.452;18.652;2023-09-07T01:57:53;18.58;;;13.43;;
81229;SDS011;70701;44.452;18.652;2023-09-07T02:00:19;15.18;;;13.13;;
81229;SDS011;70701;44.452;18.652;2023-09-07T02:02:44;13.77;;;12.05;;
81229;SDS011;70701;44.452;18.652;2023-09-07T02:05:10;16.63;;;11.80;;
81229;SDS011;70701;44.452;18.652;2023-09-07T02:07:35;16.80;;;10.82;;
81229;SDS011;70701;44.452;18.652;2023-09-07T02:10:01;13.82;;;11.18;;
81229;SDS011;70701;44.452;18.652;2023-09-07T02:12:28;12.98;;;10.27;;
81229;SDS011;70701;44.452;18.652;2023-09-07T02:14:55;13.98;;;11.25;;
81229;SDS011;70701;44.452;18.652;2023-09-07T02:17:20;12.88;;;10.80;;
81229;SDS011;70701;44.452;18.652;2023-09-07T02:19:46;11.73;;;10.52;;
81229;SDS011;70701;44.452;18.652;2023-09-07T02:22:12;15.88;;;11.57;;
81229;SDS011;70701;44.452;18.652;2023-09-07T02:24:37;15.15;;;11.30;;
81229;SDS011;70701;44.452;18.652;2023-09-07T02:27:04;14.85;;;11.43;;
81229;SDS011;70701;44.452;18.652;2023-09-07T02:29:30;13.32;;;10.90;;
81229;SDS011;70701;44.452;18.652;2023-09-07T02:31:57;14.30;;;12.48;;
81229;SDS011;70701;44.452;18.652;2023-09-07T02:34:23;14.80;;;11.38;;
81229;SDS011;70701;44.452;18.652;2023-09-07T02:36:49;12.85;;;10.98;;
81229;SDS011;70701;44.452;18.652;2023-09-07T02:39:15;13.13;;;11.50;;
81229;SDS011;70701;44.452;18.652;2023-09-07T02:41:40;15.10;;;10.75;;
81229;SDS011;70701;44.452;18.652;2023-09-07T02:44:06;16.00;;;10.93;;
81229;SDS011;70701;44.452;18.652;2023-09-07T02:46:32;12.40;;;11.02;;
81229;SDS011;70701;44.452;18.652;2023-09-07T02:48:57;15.38;;;11.88;;
81229;SDS011;70701;44.452;18.652;2023-09-07T02:51:24;13.05;;;10.70;;
81229;SDS011;70701;44.452;18.652;2023-09-07T02:53:51;13.70;;;10.80;;
81229;SDS011;70701;44.452;18.652;2023-09-07T02:56:18;12.25;;;10.77;;
81229;SDS011;70701;44.452;18.652;2023-09-07T02:58:44;13.10;;;11.25;;
81229;SDS011;70701;44.452;18.652;2023-09-07T03:01:11;13.68;;;11.20;;
81229;SDS011;70701;44.452;18.652;2023-09-07T03:03:38;13.43;;;10.65;;
81229;SDS011;70701;44.452;18.652;2023-09-07T03:06:10;13.80;;;10.02;;
81229;SDS011;70701;44.452;18.652;2023-09-07T03:08:40;13.85;;;11.38;;
81229;SDS011;70701;44.452;18.652;2023-09-07T03:11:06;12.40;;;10.45;;
81229;SDS011;70701;44.452;18.652;2023-09-07T03:13:34;14.30;;;10.25;;
81229;SDS011;70701;44.452;18.652;2023-09-07T03:16:00;12.25;;;10.95;;
81229;SDS011;70701;44.452;18.652;2023-09-07T03:18:28;12.10;;;10.45;;
81229;SDS011;70701;44.452;18.652;2023-09-07T03:20:54;12.02;;;10.40;;
81229;SDS011;70701;44.452;18.652;2023-09-07T03:23:22;12.50;;;10.23;;
81229;SDS011;70701;44.452;18.652;2023-09-07T03:25:48;12.50;;;10.43;;
81229;SDS011;70701;44.452;18.652;2023-09-07T03:28:15;13.10;;;11.00;;
81229;SDS011;70701;44.452;18.652;2023-09-07T03:30:41;12.27;;;10.75;;
81229;SDS011;70701;44.452;18.652;2023-09-07T03:33:07;13.23;;;11.38;;
81229;SDS011;70701;44.452;18.652;2023-09-07T03:35:33;13.38;;;11.73;;
81229;SDS011;70701;44.452;18.652;2023-09-07T03:37:58;16.63;;;11.65;;
81229;SDS011;70701;44.452;18.652;2023-09-07T03:40:25;14.75;;;11.88;;
81229;SDS011;70701;44.452;18.652;2023-09-07T03:42:51;14.13;;;11.73;;
81229;SDS011;70701;44.452;18.652;2023-09-07T03:45:17;13.57;;;10.43;;
81229;SDS011;70701;44.452;18.652;2023-09-07T03:47:42;15.65;;;12.57;;
81229;SDS011;70701;44.452;18.652;2023-09-07T03:50:11;19.85;;;11.77;;
81229;SDS011;70701;44.452;18.652;2023-09-07T03:52:37;17.13;;;11.23;;
81229;SDS011;70701;44.452;18.652;2023-09-07T03:55:04;16.08;;;12.13;;
81229;SDS011;70701;44.452;18.652;2023-09-07T03:57:30;14.50;;;11.60;;
81229;SDS011;70701;44.452;18.652;2023-09-07T03:59:56;16.38;;;12.25;;
81229;SDS011;70701;44.452;18.652;2023-09-07T04:02:22;16.23;;;12.43;;
81229;SDS011;70701;44.452;18.652;2023-09-07T04:04:49;21.40;;;12.70;;
81229;SDS011;70701;44.452;18.652;2023-09-07T04:07:20;18.45;;;11.73;;
81229;SDS011;70701;44.452;18.652;2023-09-07T04:09:47;15.75;;;11.07;;
81229;SDS011;70701;44.452;18.652;2023-09-07T04:12:12;14.98;;;11.23;;
81229;SDS011;70701;44.452;18.652;2023-09-07T04:14:38;13.50;;;11.18;;
81229;SDS011;70701;44.452;18.652;2023-09-07T04:17:04;16.08;;;10.65;;
81229;SDS011;70701;44.452;18.652;2023-09-07T04:19:30;17.38;;;10.95;;
81229;SDS011;70701;44.452;18.652;2023-09-07T04:21:56;22.55;;;10.85;;
81229;SDS011;70701;44.452;18.652;2023-09-07T04:24:23;13.35;;;10.75;;
81229;SDS011;70701;44.452;18.652;2023-09-07T04:26:48;16.52;;;12.65;;
81229;SDS011;70701;44.452;18.652;2023-09-07T04:29:15;14.63;;;10.70;;
81229;SDS011;70701;44.452;18.652;2023-09-07T04:31:41;16.05;;;10.85;;
81229;SDS011;70701;44.452;18.652;2023-09-07T04:34:07;14.07;;;11.85;;
81229;SDS011;70701;44.452;18.652;2023-09-07T04:36:33;19.23;;;14.48;;
81229;SDS011;70701;44.452;18.652;2023-09-07T04:39:00;16.40;;;14.60;;
81229;SDS011;70701;44.452;18.652;2023-09-07T04:41:25;22.52;;;13.98;;
81229;SDS011;70701;44.452;18.652;2023-09-07T04:43:51;15.75;;;12.27;;
81229;SDS011;70701;44.452;18.652;2023-09-07T04:46:20;18.35;;;12.00;;
81229;SDS011;70701;44.452;18.652;2023-09-07T04:48:47;16.15;;;12.65;;
81229;SDS011;70701;44.452;18.652;2023-09-07T04:51:13;16.75;;;12.38;;
81229;SDS011;70701;44.452;18.652;2023-09-07T04:53:39;16.23;;;12.25;;
81229;SDS011;70701;44.452;18.652;2023-09-07T04:56:05;15.32;;;11.82;;
81229;SDS011;70701;44.452;18.652;2023-09-07T04:58:33;14.27;;;11.70;;
81229;SDS011;70701;44.452;18.652;2023-09-07T05:01:04;13.05;;;11.63;;
81229;SDS011;70701;44.452;18.652;2023-09-07T05:03:30;15.98;;;11.93;;
81229;SDS011;70701;44.452;18.652;2023-09-07T05:05:56;12.15;;;10.73;;
81229;SDS011;70701;44.452;18.652;2023-09-07T05:08:22;13.60;;;11.20;;
81229;SDS011;70701;44.452;18.652;2023-09-07T05:10:54;13.55;;;11.00;;
81229;SDS011;70701;44.452;18.652;2023-09-07T05:13:29;16.08;;;11.18;;
81229;SDS011;70701;44.452;18.652;2023-09-07T05:15:57;20.02;;;11.82;;
81229;SDS011;70701;44.452;18.652;2023-09-07T05:18:24;17.90;;;11.80;;
81229;SDS011;70701;44.452;18.652;2023-09-07T05:20:49;16.13;;;12.15;;
81229;SDS011;70701;44.452;18.652;2023-09-07T05:23:18;13.27;;;11.00;;
81229;SDS011;70701;44.452;18.652;2023-09-07T05:25:46;21.30;;;11.95;;
81229;SDS011;70701;44.452;18.652;2023-09-07T05:28:18;18.60;;;12.07;;
81229;SDS011;70701;44.452;18.652;2023-09-07T05:30:44;18.92;;;12.20;;
81229;SDS011;70701;44.452;18.652;2023-09-07T05:33:10;22.73;;;12.77;;
81229;SDS011;70701;44.452;18.652;2023-09-07T05:35:37;24.75;;;12.35;;
81229;SDS011;70701;44.452;18.652;2023-09-07T05:38:04;15.95;;;11.98;;
81229;SDS011;70701;44.452;18.652;2023-09-07T05:40:33;16.08;;;11.75;;
81229;SDS011;70701;44.452;18.652;2023-09-07T05:43:03;16.10;;;11.80;;
81229;SDS011;70701;44.452;18.652;2023-09-07T05:45:30;16.13;;;11.52;;
81229;SDS011;70701;44.452;18.652;2023-09-07T05:47:59;16.10;;;11.55;;
81229;SDS011;70701;44.452;18.652;2023-09-07T05:50:25;13.70;;;10.90;;
81229;SDS011;70701;44.452;18.652;2023-09-07T05:52:51;18.33;;;11.35;;
81229;SDS011;70701;44.452;18.652;2023-09-07T05:55:17;12.70;;;11.23;;
81229;SDS011;70701;44.452;18.652;2023-09-07T05:57:43;16.73;;;11.45;;
81229;SDS011;70701;44.452;18.652;2023-09-07T06:00:09;16.00;;;12.32;;
81229;SDS011;70701;44.452;18.652;2023-09-07T06:02:41;14.55;;;10.30;;
81229;SDS011;70701;44.452;18.652;2023-09-07T06:05:10;17.10;;;11.30;;
81229;SDS011;70701;44.452;18.652;2023-09-07T06:07:36;24.40;;;13.73;;
81229;SDS011;70701;44.452;18.652;2023-09-07T06:10:02;15.95;;;12.88;;
81229;SDS011;70701;44.452;18.652;2023-09-07T06:12:31;15.25;;;11.27;;
81229;SDS011;70701;44.452;18.652;2023-09-07T06:14:58;17.30;;;12.20;;
81229;SDS011;70701;44.452;18.652;2023-09-07T06:17:25;25.25;;;13.45;;
81229;SDS011;70701;44.452;18.652;2023-09-07T06:19:50;17.00;;;12.75;;
81229;SDS011;70701;44.452;18.652;2023-09-07T06:22:16;13.90;;;11.73;;
81229;SDS011;70701;44.452;18.652;2023-09-07T06:24:41;19.67;;;12.85;;
81229;SDS011;70701;44.452;18.652;2023-09-07T06:27:07;26.77;;;13.32;;
81229;SDS011;70701;44.452;18.652;2023-09-07T06:29:33;17.25;;;12.88;;
81229;SDS011;70701;44.452;18.652;2023-09-07T06:32:00;17.77;;;12.73;;
81229;SDS011;70701;44.452;18.652;2023-09-07T06:34:26;19.60;;;12.85;;
81229;SDS011;70701;44.452;18.652;2023-09-07T06:36:52;15.32;;;12.65;;
81229;SDS011;70701;44.452;18.652;2023-09-07T06:39:19;18.05;;;13.50;;
81229;SDS011;70701;44.452;18.652;2023-09-07T06:41:46;15.77;;;12.63;;
81229;SDS011;70701;44.452;18.652;2023-09-07T06:44:13;15.93;;;13.13;;
81229;SDS011;70701;44.452;18.652;2023-09-07T06:46:39;18.42;;;13.10;;
81229;SDS011;70701;44.452;18.652;2023-09-07T06:49:05;15.95;;;12.27;;
81229;SDS011;70701;44.452;18.652;2023-09-07T06:51:32;19.77;;;13.38;;
81229;SDS011;70701;44.452;18.652;2023-09-07T06:53:57;22.38;;;15.73;;
81229;SDS011;70701;44.452;18.652;2023-09-07T06:56:25;36.88;;;26.33;;
81229;SDS011;70701;44.452;18.652;2023-09-07T06:58:55;31.80;;;21.73;;
81229;SDS011;70701;44.452;18.652;2023-09-07T07:01:21;26.45;;;18.67;;
81229;SDS011;70701;44.452;18.652;2023-09-07T07:03:47;19.02;;;14.30;;
81229;SDS011;70701;44.452;18.652;2023-09-07T07:06:15;28.25;;;18.38;;
81229;SDS011;70701;44.452;18.652;2023-09-07T07:08:40;27.73;;;18.85;;
81229;SDS011;70701;44.452;18.652;2023-09-07T07:11:06;30.92;;;24.05;;
81229;SDS011;70701;44.452;18.652;2023-09-07T07:13:34;35.30;;;27.60;;
81229;SDS011;70701;44.452;18.652;2023-09-07T07:16:02;28.58;;;19.55;;
81229;SDS011;70701;44.452;18.652;2023-09-07T07:18:29;21.92;;;16.83;;
81229;SDS011;70701;44.452;18.652;2023-09-07T07:20:56;38.80;;;28.45;;
81229;SDS011;70701;44.452;18.652;2023-09-07T07:23:21;25.10;;;18.73;;
81229;SDS011;70701;44.452;18.652;2023-09-07T07:25:47;29.10;;;23.02;;
81229;SDS011;70701;44.452;18.652;2023-09-07T07:28:13;26.52;;;21.02;;
81229;SDS011;70701;44.452;18.652;2023-09-07T07:30:38;22.38;;;16.23;;
81229;SDS011;70701;44.452;18.652;2023-09-07T07:33:08;19.65;;;14.50;;
81229;SDS011;70701;44.452;18.652;2023-09-07T07:35:35;19.10;;;14.68;;
81229;SDS011;70701;44.452;18.652;2023-09-07T07:38:02;29.10;;;18.30;;
81229;SDS011;70701;44.452;18.652;2023-09-07T07:40:30;31.80;;;20.80;;
81229;SDS011;70701;44.452;18.652;2023-09-07T07:42:56;23.80;;;16.70;;
81229;SDS011;70701;44.452;18.652;2023-09-07T07:45:21;23.42;;;18.27;;
81229;SDS011;70701;44.452;18.652;2023-09-07T07:47:49;20.05;;;15.70;;
81229;SDS011;70701;44.452;18.652;2023-09-07T07:50:15;18.27;;;15.07;;
81229;SDS011;70701;44.452;18.652;2023-09-07T07:52:44;26.73;;;19.85;;
81229;SDS011;70701;44.452;18.652;2023-09-07T07:55:10;27.38;;;19.35;;
81229;SDS011;70701;44.452;18.652;2023-09-07T07:57:38;45.72;;;39.72;;
81229;SDS011;70701;44.452;18.652;2023-09-07T08:00:05;30.50;;;24.90;;
81229;SDS011;70701;44.452;18.652;2023-09-07T08:02:39;25.15;;;18.40;;
81229;SDS011;70701;44.452;18.652;2023-09-07T08:05:06;21.17;;;16.95;;
81229;SDS011;70701;44.452;18.652;2023-09-07T08:07:34;21.55;;;15.65;;
81229;SDS011;70701;44.452;18.652;2023-09-07T08:10:06;20.60;;;14.43;;
81229;SDS011;70701;44.452;18.652;2023-09-07T08:12:33;28.25;;;20.42;;
81229;SDS011;70701;44.452;18.652;2023-09-07T08:14:59;31.48;;;23.25;;
81229;SDS011;70701;44.452;18.652;2023-09-07T08:17:25;29.05;;;20.95;;
81229;SDS011;70701;44.452;18.652;2023-09-07T08:19:51;20.15;;;14.82;;
81229;SDS011;70701;44.452;18.652;2023-09-07T08:22:22;20.92;;;15.57;;
81229;SDS011;70701;44.452;18.652;2023-09-07T08:24:48;19.33;;;14.70;;
81229;SDS011;70701;44.452;18.652;2023-09-07T08:27:16;19.73;;;13.80;;
81229;SDS011;70701;44.452;18.652;2023-09-07T08:29:49;19.67;;;14.05;;
81229;SDS011;70701;44.452;18.652;2023-09-07T08:32:19;19.77;;;15.95;;
81229;SDS011;70701;44.452;18.652;2023-09-07T08:34:44;29.63;;;23.60;;
81229;SDS011;70701;44.452;18.652;2023-09-07T08:37:10;23.88;;;19.35;;
81229;SDS011;70701;44.452;18.652;2023-09-07T08:39:35;22.13;;;17.90;;
81229;SDS011;70701;44.452;18.652;2023-09-07T08:42:02;41.47;;;35.95;;
81229;SDS011;70701;44.452;18.652;2023-09-07T08:44:28;28.63;;;23.95;;
81229;SDS011;70701;44.452;18.652;2023-09-07T08:46:55;24.08;;;16.88;;
81229;SDS011;70701;44.452;18.652;2023-09-07T08:49:22;19.23;;;15.57;;
81229;SDS011;70701;44.452;18.652;2023-09-07T08:51:49;18.02;;;12.90;;
81229;SDS011;70701;44.452;18.652;2023-09-07T08:54:16;15.07;;;11.60;;
81229;SDS011;70701;44.452;18.652;2023-09-07T08:56:44;15.00;;;11.48;;
81229;SDS011;70701;44.452;18.652;2023-09-07T08:59:10;14.10;;;10.68;;
81229;SDS011;70701;44.452;18.652;2023-09-07T09:01:36;14.32;;;10.45;;
81229;SDS011;70701;44.452;18.652;2023-09-07T09:04:02;13.32;;;9.85;;
81229;SDS011;70701;44.452;18.652;2023-09-07T09:06:28;15.20;;;10.40;;
81229;SDS011;70701;44.452;18.652;2023-09-07T09:08:56;14.40;;;10.00;;
81229;SDS011;70701;44.452;18.652;2023-09-07T09:11:23;11.15;;;8.65;;
81229;SDS011;70701;44.452;18.652;2023-09-07T09:13:50;13.05;;;9.52;;
81229;SDS011;70701;44.452;18.652;2023-09-07T09:16:17;13.00;;;9.18;;
81229;SDS011;70701;44.452;18.652;2023-09-07T09:21:21;16.58;;;10.82;;
81229;SDS011;70701;44.452;18.652;2023-09-07T09:23:57;28.10;;;20.50;;
81229;SDS011;70701;44.452;18.652;2023-09-07T09:26:23;20.52;;;15.93;;
81229;SDS011;70701;44.452;18.652;2023-09-07T09:28:49;14.48;;;11.45;;
81229;SDS011;70701;44.452;18.652;2023-09-07T09:31:18;9.38;;;8.00;;
81229;SDS011;70701;44.452;18.652;2023-09-07T09:33:47;11.50;;;8.55;;
81229;SDS011;70701;44.452;18.652;2023-09-07T09:36:16;10.43;;;8.38;;
81229;SDS011;70701;44.452;18.652;2023-09-07T09:38:46;12.93;;;8.70;;
81229;SDS011;70701;44.452;18.652;2023-09-07T09:41:18;13.77;;;9.02;;
81229;SDS011;70701;44.452;18.652;2023-09-07T09:43:46;10.63;;;8.23;;
81229;SDS011;70701;44.452;18.652;2023-09-07T09:46:17;11.30;;;7.97;;
81229;SDS011;70701;44.452;18.652;2023-09-07T09:48:43;10.98;;;8.55;;
81229;SDS011;70701;44.452;18.652;2023-09-07T09:51:09;9.80;;;8.07;;
81229;SDS011;70701;44.452;18.652;2023-09-07T09:53:36;10.73;;;8.15;;
81229;SDS011;70701;44.452;18.652;2023-09-07T09:56:02;12.20;;;8.20;;
81229;SDS011;70701;44.452;18.652;2023-09-07T09:58:28;9.30;;;7.63;;
81229;SDS011;70701;44.452;18.652;2023-09-07T10:00:55;9.85;;;7.78;;
81229;SDS011;70701;44.452;18.652;2023-09-07T10:03:29;10.60;;;7.18;;
81229;SDS011;70701;44.452;18.652;2023-09-07T10:06:07;15.27;;;8.32;;
81229;SDS011;70701;44.452;18.652;2023-09-07T10:08:33;10.63;;;7.00;;
81229;SDS011;70701;44.452;18.652;2023-09-07T10:10:59;7.68;;;5.70;;
81229;SDS011;70701;44.452;18.652;2023-09-07T10:13:28;10.30;;;5.53;;
81229;SDS011;70701;44.452;18.652;2023-09-07T10:16:05;8.70;;;6.30;;
81229;SDS011;70701;44.452;18.652;2023-09-07T10:18:36;9.20;;;5.50;;
81229;SDS011;70701;44.452;18.652;2023-09-07T10:21:02;9.20;;;6.45;;
81229;SDS011;70701;44.452;18.652;2023-09-07T10:26:05;9.35;;;5.53;;
81229;SDS011;70701;44.452;18.652;2023-09-07T10:28:35;7.82;;;5.25;;
81229;SDS011;70701;44.452;18.652;2023-09-07T10:31:04;9.73;;;5.50;;
81229;SDS011;70701;44.452;18.652;2023-09-07T10:33:32;9.75;;;5.65;;
81229;SDS011;70701;44.452;18.652;2023-09-07T10:35:59;9.18;;;5.13;;
81229;SDS011;70701;44.452;18.652;2023-09-07T10:38:26;8.80;;;5.57;;
81229;SDS011;70701;44.452;18.652;2023-09-07T10:40:57;8.43;;;5.28;;
81229;SDS011;70701;44.452;18.652;2023-09-07T10:43:25;8.02;;;5.60;;
81229;SDS011;70701;44.452;18.652;2023-09-07T10:45:51;7.13;;;5.10;;
81229;SDS011;70701;44.452;18.652;2023-09-07T10:48:18;8.20;;;5.57;;
81229;SDS011;70701;44.452;18.652;2023-09-07T10:50:44;8.75;;;5.25;;
81229;SDS011;70701;44.452;18.652;2023-09-07T10:53:12;9.57;;;5.40;;
81229;SDS011;70701;44.452;18.652;2023-09-07T10:55:39;9.55;;;5.70;;
81229;SDS011;70701;44.452;18.652;2023-09-07T10:58:06;7.88;;;5.22;;
81229;SDS011;70701;44.452;18.652;2023-09-07T11:00:34;8.38;;;6.07;;
81229;SDS011;70701;44.452;18.652;2023-09-07T11:03:06;7.57;;;5.28;;
81229;SDS011;70701;44.452;18.652;2023-09-07T11:05:32;11.43;;;7.68;;
81229;SDS011;70701;44.452;18.652;2023-09-07T11:08:01;8.25;;;5.90;;
81229;SDS011;70701;44.452;18.652;2023-09-07T11:10:26;8.00;;;5.28;;
81229;SDS011;70701;44.452;18.652;2023-09-07T11:12:53;9.55;;;5.60;;
81229;SDS011;70701;44.452;18.652;2023-09-07T11:15:19;9.40;;;6.50;;
81229;SDS011;70701;44.452;18.652;2023-09-07T11:17:44;9.52;;;6.05;;
81229;SDS011;70701;44.452;18.652;2023-09-07T11:20:11;7.50;;;6.03;;
81229;SDS011;70701;44.452;18.652;2023-09-07T11:22:37;7.95;;;5.72;;
81229;SDS011;70701;44.452;18.652;2023-09-07T11:25:05;8.50;;;5.78;;
81229;SDS011;70701;44.452;18.652;2023-09-07T11:27:32;7.68;;;5.75;;
81229;SDS011;70701;44.452;18.652;2023-09-07T11:29:57;9.73;;;5.68;;
81229;SDS011;70701;44.452;18.652;2023-09-07T11:32:32;8.68;;;5.28;;
81229;SDS011;70701;44.452;18.652;2023-09-07T11:34:59;7.88;;;5.50;;
81229;SDS011;70701;44.452;18.652;2023-09-07T11:37:25;9.25;;;6.05;;
81229;SDS011;70701;44.452;18.652;2023-09-07T11:39:51;7.82;;;5.47;;
81229;SDS011;70701;44.452;18.652;2023-09-07T11:42:17;9.10;;;5.40;;
81229;SDS011;70701;44.452;18.652;2023-09-07T11:44:43;8.95;;;5.70;;
81229;SDS011;70701;44.452;18.652;2023-09-07T11:47:08;8.95;;;5.95;;
81229;SDS011;70701;44.452;18.652;2023-09-07T11:49:34;20.67;;;15.65;;
81229;SDS011;70701;44.452;18.652;2023-09-07T11:52:00;27.02;;;18.33;;
81229;SDS011;70701;44.452;18.652;2023-09-07T11:54:25;17.25;;;13.52;;
81229;SDS011;70701;44.452;18.652;2023-09-07T11:56:51;13.13;;;9.57;;
81229;SDS011;70701;44.452;18.652;2023-09-07T11:59:17;10.55;;;7.97;;
81229;SDS011;70701;44.452;18.652;2023-09-07T12:01:43;9.90;;;7.32;;
81229;SDS011;70701;44.452;18.652;2023-09-07T12:04:09;9.80;;;6.85;;
81229;SDS011;70701;44.452;18.652;2023-09-07T12:06:35;10.18;;;6.93;;
81229;SDS011;70701;44.452;18.652;2023-09-07T12:09:02;8.50;;;6.45;;
81229;SDS011;70701;44.452;18.652;2023-09-07T12:11:29;7.18;;;5.78;;
81229;SDS011;70701;44.452;18.652;2023-09-07T12:13:56;7.50;;;5.75;;
81229;SDS011;70701;44.452;18.652;2023-09-07T12:16:22;8.70;;;5.45;;
81229;SDS011;70701;44.452;18.652;2023-09-07T12:18:47;8.40;;;5.65;;
81229;SDS011;70701;44.452;18.652;2023-09-07T12:21:13;21.90;;;16.50;;
81229;SDS011;70701;44.452;18.652;2023-09-07T12:23:38;34.72;;;25.88;;
81229;SDS011;70701;44.452;18.652;2023-09-07T12:26:04;18.33;;;13.77;;
81229;SDS011;70701;44.452;18.652;2023-09-07T12:28:30;23.35;;;19.58;;
81229;SDS011;70701;44.452;18.652;2023-09-07T12:30:56;13.57;;;10.13;;
81229;SDS011;70701;44.452;18.652;2023-09-07T12:33:23;8.32;;;6.50;;
81229;SDS011;70701;44.452;18.652;2023-09-07T12:35:50;8.32;;;5.72;;
81229;SDS011;70701;44.452;18.652;2023-09-07T12:38:16;8.50;;;5.80;;
81229;SDS011;70701;44.452;18.652;2023-09-07T12:40:43;9.10;;;5.45;;
81229;SDS011;70701;44.452;18.652;2023-09-07T12:43:09;8.25;;;5.43;;
81229;SDS011;70701;44.452;18.652;2023-09-07T12:45:35;8.82;;;6.18;;
81229;SDS011;70701;44.452;18.652;2023-09-07T12:48:01;9.07;;;6.10;;
81229;SDS011;70701;44.452;18.652;2023-09-07T12:50:27;10.93;;;5.68;;
81229;SDS011;70701;44.452;18.652;2023-09-07T12:52:53;6.82;;;5.10;;
81229;SDS011;70701;44.452;18.652;2023-09-07T12:55:19;6.32;;;4.85;;
81229;SDS011;70701;44.452;18.652;2023-09-07T12:57:45;8.38;;;5.90;;
81229;SDS011;70701;44.452;18.652;2023-09-07T13:00:11;7.28;;;5.30;;
81229;SDS011;70701;44.452;18.652;2023-09-07T13:02:37;7.03;;;5.00;;
81229;SDS011;70701;44.452;18.652;2023-09-07T13:05:03;7.38;;;4.78;;
81229;SDS011;70701;44.452;18.652;2023-09-07T13:07:32;7.45;;;4.78;;
81229;SDS011;70701;44.452;18.652;2023-09-07T13:09:58;6.95;;;4.80;;
81229;SDS011;70701;44.452;18.652;2023-09-07T13:12:24;8.90;;;6.18;;
81229;SDS011;70701;44.452;18.652;2023-09-07T13:14:49;21.75;;;15.35;;
81229;SDS011;70701;44.452;18.652;2023-09-07T13:17:15;30.52;;;23.15;;
81229;SDS011;70701;44.452;18.652;2023-09-07T13:19:41;19.27;;;15.00;;
81229;SDS011;70701;44.452;18.652;2023-09-07T13:22:07;15.57;;;11.88;;
81229;SDS011;70701;44.452;18.652;2023-09-07T13:24:34;17.20;;;13.38;;
81229;SDS011;70701;44.452;18.652;2023-09-07T13:26:59;20.88;;;15.48;;
81229;SDS011;70701;44.452;18.652;2023-09-07T13:29:25;14.43;;;11.55;;
81229;SDS011;70701;44.452;18.652;2023-09-07T13:31:51;16.65;;;10.10;;
81229;SDS011;70701;44.452;18.652;2023-09-07T13:34:19;14.45;;;9.43;;
81229;SDS011;70701;44.452;18.652;2023-09-07T13:36:45;10.23;;;7.70;;
81229;SDS011;70701;44.452;18.652;2023-09-07T13:39:11;15.20;;;9.57;;
81229;SDS011;70701;44.452;18.652;2023-09-07T13:41:37;13.02;;;7.28;;
81229;SDS011;70701;44.452;18.652;2023-09-07T13:44:02;10.25;;;6.10;;
81229;SDS011;70701;44.452;18.652;2023-09-07T13:46:28;9.45;;;6.22;;
81229;SDS011;70701;44.452;18.652;2023-09-07T13:48:54;7.45;;;5.65;;
81229;SDS011;70701;44.452;18.652;2023-09-07T13:51:20;8.15;;;4.95;;
81229;SDS011;70701;44.452;18.652;2023-09-07T13:53:45;7.70;;;5.22;;
81229;SDS011;70701;44.452;18.652;2023-09-07T13:56:11;9.55;;;5.00;;
81229;SDS011;70701;44.452;18.652;2023-09-07T13:58:37;7.90;;;6.15;;
81229;SDS011;70701;44.452;18.652;2023-09-07T14:01:02;10.73;;;5.68;;
81229;SDS011;70701;44.452;18.652;2023-09-07T14:03:28;7.07;;;5.22;;
81229;SDS011;70701;44.452;18.652;2023-09-07T14:05:53;8.27;;;5.10;;
81229;SDS011;70701;44.452;18.652;2023-09-07T14:08:20;8.65;;;5.55;;
81229;SDS011;70701;44.452;18.652;2023-09-07T14:10:48;8.05;;;5.70;;
81229;SDS011;70701;44.452;18.652;2023-09-07T14:13:14;10.50;;;5.60;;
81229;SDS011;70701;44.452;18.652;2023-09-07T14:15:40;7.38;;;5.78;;
81229;SDS011;70701;44.452;18.652;2023-09-07T14:18:06;9.20;;;5.97;;
81229;SDS011;70701;44.452;18.652;2023-09-07T14:20:33;9.13;;;5.45;;